sensor_id;sensor_type;location;lat;lon;timestamp;P1;durP1;ratioP1;P2;durP2;ratioP2
8225;SDS011;4154;48.810;9.012;2023-05-10T00:01:29;1.33;;;0.45;;
8225;SDS011;4154;48.810;9.012;2023-05-10T00:03:54;0.83;;;0.30;;
8225;SDS011;4154;48.810;9.012;2023-05-10T00:06:21;0.38;;;0.38;;
8225;SDS011;4154;48.810;9.012;2023-05-10T00:08:46;2.20;;;0.35;;
8225;SDS011;4154;48.810;9.012;2023-05-10T00:11:12;0.20;;;0.20;;
8225;SDS011;4154;48.810;9.012;2023-05-10T00:13:38;0.35;;;0.35;;
8225;SDS011;4154;48.810;9.012;2023-05-10T00:16:04;0.30;;;0.30;;
8225;SDS011;4154;48.810;9.012;2023-05-10T00:18:30;0.30;;;0.20;;
8225;SDS011;4154;48.810;9.012;2023-05-10T00:20:56;0.10;;;0.10;;
8225;SDS011;4154;48.810;9.012;2023-05-10T00:23:22;0.63;;;0.40;;
8225;SDS011;4154;48.810;9.012;2023-05-10T00:25:48;1.27;;;0.30;;
8225;SDS011;4154;48.810;9.012;2023-05-10T00:28:13;0.32;;;0.32;;
8225;SDS011;4154;48.810;9.012;2023-05-10T00:30:39;0.30;;;0.30;;
8225;SDS011;4154;48.810;9.012;2023-05-10T00:33:05;0.20;;;0.20;;
8225;SDS011;4154;48.810;9.012;2023-05-10T00:35:31;0.88;;;0.35;;
8225;SDS011;4154;48.810;9.012;2023-05-10T00:37:57;0.20;;;0.20;;
8225;SDS011;4154;48.810;9.012;2023-05-10T00:40:23;0.28;;;0.28;;
8225;SDS011;4154;48.810;9.012;2023-05-10T00:42:49;2.92;;;0.30;;
8225;SDS011;4154;48.810;9.012;2023-05-10T00:45:14;0.40;;;0.40;;
8225;SDS011;4154;48.810;9.012;2023-05-10T00:47:40;0.75;;;0.20;;
8225;SDS011;4154;48.810;9.012;2023-05-10T00:50:06;0.52;;;0.52;;
8225;SDS011;4154;48.810;9.012;2023-05-10T00:52:34;0.90;;;0.38;;
8225;SDS011;4154;48.810;9.012;2023-05-10T00:54:59;1.27;;;0.40;;
8225;SDS011;4154;48.810;9.012;2023-05-10T00:57:26;0.33;;;0.33;;
8225;SDS011;4154;48.810;9.012;2023-05-10T00:59:52;0.40;;;0.40;;
8225;SDS011;4154;48.810;9.012;2023-05-10T01:02:18;1.55;;;0.40;;
8225;SDS011;4154;48.810;9.012;2023-05-10T01:04:44;0.40;;;0.40;;
8225;SDS011;4154;48.810;9.012;2023-05-10T01:07:10;0.73;;;0.47;;
8225;SDS011;4154;48.810;9.012;2023-05-10T01:09:36;0.67;;;0.60;;
8225;SDS011;4154;48.810;9.012;2023-05-10T01:12:01;1.63;;;0.45;;
8225;SDS011;4154;48.810;9.012;2023-05-10T01:14:31;0.50;;;0.50;;
8225;SDS011;4154;48.810;9.012;2023-05-10T01:16:58;0.60;;;0.60;;
8225;SDS011;4154;48.810;9.012;2023-05-10T01:19:26;0.40;;;0.40;;
8225;SDS011;4154;48.810;9.012;2023-05-10T01:24:58;0.50;;;0.50;;
8225;SDS011;4154;48.810;9.012;2023-05-10T01:33:26;0.77;;;0.77;;
8225;SDS011;4154;48.810;9.012;2023-05-10T01:38:58;0.82;;;0.80;;
8225;SDS011;4154;48.810;9.012;2023-05-10T01:47:15;0.60;;;0.60;;
8225;SDS011;4154;48.810;9.012;2023-05-10T01:49:54;0.60;;;0.60;;
8225;SDS011;4154;48.810;9.012;2023-05-10T01:52:26;0.70;;;0.70;;
8225;SDS011;4154;48.810;9.012;2023-05-10T01:55:02;1.65;;;0.60;;
8225;SDS011;4154;48.810;9.012;2023-05-10T01:57:34;1.42;;;0.50;;
8225;SDS011;4154;48.810;9.012;2023-05-10T02:00:04;0.80;;;0.80;;
8225;SDS011;4154;48.810;9.012;2023-05-10T02:02:35;1.08;;;0.90;;
8225;SDS011;4154;48.810;9.012;2023-05-10T02:05:05;0.73;;;0.73;;
8225;SDS011;4154;48.810;9.012;2023-05-10T02:07:34;0.70;;;0.70;;
8225;SDS011;4154;48.810;9.012;2023-05-10T02:10:02;0.70;;;0.70;;
8225;SDS011;4154;48.810;9.012;2023-05-10T02:12:35;0.80;;;0.80;;
8225;SDS011;4154;48.810;9.012;2023-05-10T02:15:06;0.65;;;0.65;;
8225;SDS011;4154;48.810;9.012;2023-05-10T02:17:35;0.75;;;0.73;;
8225;SDS011;4154;48.810;9.012;2023-05-10T02:20:04;0.65;;;0.65;;
8225;SDS011;4154;48.810;9.012;2023-05-10T02:22:33;0.70;;;0.70;;
8225;SDS011;4154;48.810;9.012;2023-05-10T02:25:01;0.75;;;0.75;;
8225;SDS011;4154;48.810;9.012;2023-05-10T02:27:28;0.98;;;0.70;;
8225;SDS011;4154;48.810;9.012;2023-05-10T02:29:55;1.52;;;0.90;;
8225;SDS011;4154;48.810;9.012;2023-05-10T02:32:24;0.75;;;0.75;;
8225;SDS011;4154;48.810;9.012;2023-05-10T02:34:52;0.80;;;0.80;;
8225;SDS011;4154;48.810;9.012;2023-05-10T02:37:20;0.95;;;0.63;;
8225;SDS011;4154;48.810;9.012;2023-05-10T02:39:47;0.90;;;0.90;;
8225;SDS011;4154;48.810;9.012;2023-05-10T02:42:16;0.70;;;0.70;;
8225;SDS011;4154;48.810;9.012;2023-05-10T02:44:45;1.03;;;0.73;;
8225;SDS011;4154;48.810;9.012;2023-05-10T02:47:15;1.58;;;0.70;;
8225;SDS011;4154;48.810;9.012;2023-05-10T02:49:42;1.00;;;0.90;;
8225;SDS011;4154;48.810;9.012;2023-05-10T02:52:08;1.65;;;0.90;;
8225;SDS011;4154;48.810;9.012;2023-05-10T02:54:39;1.75;;;1.02;;
8225;SDS011;4154;48.810;9.012;2023-05-10T02:57:11;3.83;;;0.88;;
8225;SDS011;4154;48.810;9.012;2023-05-10T02:59:44;1.50;;;1.00;;
8225;SDS011;4154;48.810;9.012;2023-05-10T03:02:10;1.58;;;1.27;;
8225;SDS011;4154;48.810;9.012;2023-05-10T03:04:39;1.10;;;0.90;;
8225;SDS011;4154;48.810;9.012;2023-05-10T03:07:05;1.52;;;1.30;;
8225;SDS011;4154;48.810;9.012;2023-05-10T03:09:32;1.13;;;1.13;;
8225;SDS011;4154;48.810;9.012;2023-05-10T03:12:11;1.57;;;1.20;;
8225;SDS011;4154;48.810;9.012;2023-05-10T03:14:59;1.75;;;1.27;;
8225;SDS011;4154;48.810;9.012;2023-05-10T03:17:52;2.28;;;1.48;;
8225;SDS011;4154;48.810;9.012;2023-05-10T03:20:31;1.42;;;1.40;;
8225;SDS011;4154;48.810;9.012;2023-05-10T03:26:24;2.17;;;1.50;;
8225;SDS011;4154;48.810;9.012;2023-05-10T03:28:54;1.73;;;1.40;;
8225;SDS011;4154;48.810;9.012;2023-05-10T03:31:23;1.55;;;1.45;;
8225;SDS011;4154;48.810;9.012;2023-05-10T03:33:50;1.50;;;1.40;;
8225;SDS011;4154;48.810;9.012;2023-05-10T03:36:17;1.60;;;1.50;;
8225;SDS011;4154;48.810;9.012;2023-05-10T03:38:44;1.65;;;1.50;;
8225;SDS011;4154;48.810;9.012;2023-05-10T03:41:10;1.40;;;1.30;;
8225;SDS011;4154;48.810;9.012;2023-05-10T03:43:36;1.30;;;1.20;;
8225;SDS011;4154;48.810;9.012;2023-05-10T03:46:02;1.15;;;1.10;;
8225;SDS011;4154;48.810;9.012;2023-05-10T03:48:29;1.55;;;1.35;;
8225;SDS011;4154;48.810;9.012;2023-05-10T03:50:55;1.40;;;1.10;;
8225;SDS011;4154;48.810;9.012;2023-05-10T03:53:21;1.20;;;1.10;;
8225;SDS011;4154;48.810;9.012;2023-05-10T03:55:47;3.15;;;1.20;;
8225;SDS011;4154;48.810;9.012;2023-05-10T03:58:13;1.92;;;1.08;;
8225;SDS011;4154;48.810;9.012;2023-05-10T04:00:40;1.70;;;1.23;;
8225;SDS011;4154;48.810;9.012;2023-05-10T04:03:10;2.53;;;1.30;;
8225;SDS011;4154;48.810;9.012;2023-05-10T04:05:37;1.42;;;1.33;;
8225;SDS011;4154;48.810;9.012;2023-05-10T04:08:03;1.40;;;1.30;;
8225;SDS011;4154;48.810;9.012;2023-05-10T04:10:30;1.70;;;1.50;;
8225;SDS011;4154;48.810;9.012;2023-05-10T04:12:55;1.60;;;1.50;;
8225;SDS011;4154;48.810;9.012;2023-05-10T04:15:21;1.17;;;1.13;;
8225;SDS011;4154;48.810;9.012;2023-05-10T04:17:47;1.40;;;1.30;;
8225;SDS011;4154;48.810;9.012;2023-05-10T04:20:13;2.67;;;1.10;;
8225;SDS011;4154;48.810;9.012;2023-05-10T04:22:40;1.63;;;1.50;;
8225;SDS011;4154;48.810;9.012;2023-05-10T04:25:05;1.23;;;1.17;;
8225;SDS011;4154;48.810;9.012;2023-05-10T04:27:32;1.20;;;1.10;;
8225;SDS011;4154;48.810;9.012;2023-05-10T04:29:58;1.10;;;1.10;;
8225;SDS011;4154;48.810;9.012;2023-05-10T04:32:24;1.35;;;1.25;;
8225;SDS011;4154;48.810;9.012;2023-05-10T04:34:49;1.90;;;1.20;;
8225;SDS011;4154;48.810;9.012;2023-05-10T04:37:18;1.35;;;1.25;;
8225;SDS011;4154;48.810;9.012;2023-05-10T04:39:46;1.13;;;1.13;;
8225;SDS011;4154;48.810;9.012;2023-05-10T04:42:12;1.10;;;1.10;;
8225;SDS011;4154;48.810;9.012;2023-05-10T04:44:39;1.40;;;1.30;;
8225;SDS011;4154;48.810;9.012;2023-05-10T04:47:05;1.40;;;1.30;;
8225;SDS011;4154;48.810;9.012;2023-05-10T04:49:31;2.03;;;1.30;;
8225;SDS011;4154;48.810;9.012;2023-05-10T04:51:57;1.87;;;1.20;;
8225;SDS011;4154;48.810;9.012;2023-05-10T04:54:23;1.98;;;1.30;;
8225;SDS011;4154;48.810;9.012;2023-05-10T04:56:49;1.27;;;1.17;;
8225;SDS011;4154;48.810;9.012;2023-05-10T04:59:15;1.55;;;1.40;;
8225;SDS011;4154;48.810;9.012;2023-05-10T05:01:41;1.50;;;1.38;;
8225;SDS011;4154;48.810;9.012;2023-05-10T05:04:07;1.40;;;1.30;;
8225;SDS011;4154;48.810;9.012;2023-05-10T05:06:32;1.58;;;1.48;;
8225;SDS011;4154;48.810;9.012;2023-05-10T05:08:58;2.65;;;1.50;;
8225;SDS011;4154;48.810;9.012;2023-05-10T05:11:24;1.88;;;1.75;;
8225;SDS011;4154;48.810;9.012;2023-05-10T05:13:50;1.57;;;1.47;;
8225;SDS011;4154;48.810;9.012;2023-05-10T05:16:16;2.77;;;1.40;;
8225;SDS011;4154;48.810;9.012;2023-05-10T05:18:42;2.50;;;1.40;;
8225;SDS011;4154;48.810;9.012;2023-05-10T05:21:17;1.50;;;1.40;;
8225;SDS011;4154;48.810;9.012;2023-05-10T05:23:45;2.58;;;1.45;;
8225;SDS011;4154;48.810;9.012;2023-05-10T05:26:11;2.13;;;1.55;;
8225;SDS011;4154;48.810;9.012;2023-05-10T05:28:37;1.88;;;1.50;;
8225;SDS011;4154;48.810;9.012;2023-05-10T05:31:04;1.55;;;1.40;;
8225;SDS011;4154;48.810;9.012;2023-05-10T05:33:31;5.07;;;1.65;;
8225;SDS011;4154;48.810;9.012;2023-05-10T05:35:56;2.15;;;1.70;;
8225;SDS011;4154;48.810;9.012;2023-05-10T05:38:26;1.40;;;1.30;;
8225;SDS011;4154;48.810;9.012;2023-05-10T05:40:51;3.58;;;1.50;;
8225;SDS011;4154;48.810;9.012;2023-05-10T05:43:17;2.05;;;1.80;;
8225;SDS011;4154;48.810;9.012;2023-05-10T05:45:43;4.97;;;1.60;;
8225;SDS011;4154;48.810;9.012;2023-05-10T05:48:09;2.75;;;1.60;;
8225;SDS011;4154;48.810;9.012;2023-05-10T05:50:35;1.85;;;1.75;;
8225;SDS011;4154;48.810;9.012;2023-05-10T05:53:00;1.83;;;1.73;;
8225;SDS011;4154;48.810;9.012;2023-05-10T05:55:27;1.83;;;1.73;;
8225;SDS011;4154;48.810;9.012;2023-05-10T05:57:53;2.00;;;1.58;;
8225;SDS011;4154;48.810;9.012;2023-05-10T06:00:19;1.70;;;1.60;;
8225;SDS011;4154;48.810;9.012;2023-05-10T06:02:44;1.80;;;1.70;;
8225;SDS011;4154;48.810;9.012;2023-05-10T06:05:11;2.00;;;1.80;;
8225;SDS011;4154;48.810;9.012;2023-05-10T06:07:36;2.42;;;1.77;;
8225;SDS011;4154;48.810;9.012;2023-05-10T06:10:02;1.73;;;1.63;;
8225;SDS011;4154;48.810;9.012;2023-05-10T06:12:28;1.88;;;1.77;;
8225;SDS011;4154;48.810;9.012;2023-05-10T06:14:54;3.38;;;1.83;;
8225;SDS011;4154;48.810;9.012;2023-05-10T06:17:20;2.88;;;1.67;;
8225;SDS011;4154;48.810;9.012;2023-05-10T06:19:46;1.60;;;1.50;;
8225;SDS011;4154;48.810;9.012;2023-05-10T06:22:12;1.60;;;1.50;;
8225;SDS011;4154;48.810;9.012;2023-05-10T06:24:38;1.60;;;1.50;;
8225;SDS011;4154;48.810;9.012;2023-05-10T06:27:03;2.65;;;1.80;;
8225;SDS011;4154;48.810;9.012;2023-05-10T06:29:30;2.38;;;1.65;;
8225;SDS011;4154;48.810;9.012;2023-05-10T06:31:56;3.03;;;1.75;;
8225;SDS011;4154;48.810;9.012;2023-05-10T06:34:22;2.47;;;1.80;;
8225;SDS011;4154;48.810;9.012;2023-05-10T06:36:48;1.90;;;1.80;;
8225;SDS011;4154;48.810;9.012;2023-05-10T06:39:14;2.60;;;2.00;;
8225;SDS011;4154;48.810;9.012;2023-05-10T06:41:40;1.90;;;1.80;;
8225;SDS011;4154;48.810;9.012;2023-05-10T06:44:05;2.85;;;2.10;;
8225;SDS011;4154;48.810;9.012;2023-05-10T06:46:31;2.10;;;2.00;;
8225;SDS011;4154;48.810;9.012;2023-05-10T06:48:57;2.83;;;1.80;;
8225;SDS011;4154;48.810;9.012;2023-05-10T06:51:22;1.90;;;1.80;;
8225;SDS011;4154;48.810;9.012;2023-05-10T06:53:48;2.45;;;2.00;;
8225;SDS011;4154;48.810;9.012;2023-05-10T06:56:14;2.75;;;1.85;;
8225;SDS011;4154;48.810;9.012;2023-05-10T06:58:40;1.70;;;1.60;;
8225;SDS011;4154;48.810;9.012;2023-05-10T07:01:09;1.80;;;1.70;;
8225;SDS011;4154;48.810;9.012;2023-05-10T07:03:35;2.85;;;1.50;;
8225;SDS011;4154;48.810;9.012;2023-05-10T07:06:01;2.10;;;1.77;;
8225;SDS011;4154;48.810;9.012;2023-05-10T07:08:32;1.77;;;1.50;;
8225;SDS011;4154;48.810;9.012;2023-05-10T07:11:04;2.05;;;1.85;;
8225;SDS011;4154;48.810;9.012;2023-05-10T07:13:35;1.92;;;1.80;;
8225;SDS011;4154;48.810;9.012;2023-05-10T07:16:01;2.83;;;1.80;;
8225;SDS011;4154;48.810;9.012;2023-05-10T07:18:27;1.80;;;1.70;;
8225;SDS011;4154;48.810;9.012;2023-05-10T07:20:53;1.70;;;1.52;;
8225;SDS011;4154;48.810;9.012;2023-05-10T07:23:19;2.25;;;1.75;;
8225;SDS011;4154;48.810;9.012;2023-05-10T07:25:46;1.70;;;1.60;;
8225;SDS011;4154;48.810;9.012;2023-05-10T07:28:16;3.38;;;1.80;;
8225;SDS011;4154;48.810;9.012;2023-05-10T07:30:42;1.90;;;1.60;;
8225;SDS011;4154;48.810;9.012;2023-05-10T07:33:08;3.15;;;1.70;;
8225;SDS011;4154;48.810;9.012;2023-05-10T07:35:36;2.15;;;1.73;;
8225;SDS011;4154;48.810;9.012;2023-05-10T07:38:02;1.65;;;1.40;;
8225;SDS011;4154;48.810;9.012;2023-05-10T07:40:28;1.95;;;1.40;;
8225;SDS011;4154;48.810;9.012;2023-05-10T07:42:54;1.30;;;1.20;;
8225;SDS011;4154;48.810;9.012;2023-05-10T07:45:21;1.40;;;1.08;;
8225;SDS011;4154;48.810;9.012;2023-05-10T07:47:48;1.40;;;1.30;;
8225;SDS011;4154;48.810;9.012;2023-05-10T07:50:14;1.40;;;1.30;;
8225;SDS011;4154;48.810;9.012;2023-05-10T07:52:40;1.25;;;1.08;;
8225;SDS011;4154;48.810;9.012;2023-05-10T07:55:07;1.25;;;1.10;;
8225;SDS011;4154;48.810;9.012;2023-05-10T07:57:37;1.20;;;1.10;;
8225;SDS011;4154;48.810;9.012;2023-05-10T08:00:06;1.00;;;1.00;;
8225;SDS011;4154;48.810;9.012;2023-05-10T08:02:34;1.00;;;1.00;;
8225;SDS011;4154;48.810;9.012;2023-05-10T08:05:00;0.77;;;0.77;;
8225;SDS011;4154;48.810;9.012;2023-05-10T08:07:26;1.00;;;0.90;;
8225;SDS011;4154;48.810;9.012;2023-05-10T08:09:52;0.98;;;0.90;;
8225;SDS011;4154;48.810;9.012;2023-05-10T08:12:18;1.10;;;1.00;;
8225;SDS011;4154;48.810;9.012;2023-05-10T08:14:44;0.70;;;0.70;;
8225;SDS011;4154;48.810;9.012;2023-05-10T08:17:09;1.05;;;0.70;;
8225;SDS011;4154;48.810;9.012;2023-05-10T08:19:35;1.10;;;1.00;;
8225;SDS011;4154;48.810;9.012;2023-05-10T08:22:01;1.25;;;1.00;;
8225;SDS011;4154;48.810;9.012;2023-05-10T08:24:27;0.85;;;0.77;;
8225;SDS011;4154;48.810;9.012;2023-05-10T08:26:53;0.70;;;0.70;;
8225;SDS011;4154;48.810;9.012;2023-05-10T08:29:19;1.08;;;1.00;;
8225;SDS011;4154;48.810;9.012;2023-05-10T08:31:44;1.65;;;0.80;;
8225;SDS011;4154;48.810;9.012;2023-05-10T08:34:10;1.17;;;0.70;;
8225;SDS011;4154;48.810;9.012;2023-05-10T08:36:36;2.13;;;0.88;;
8225;SDS011;4154;48.810;9.012;2023-05-10T08:39:02;0.77;;;0.77;;
8225;SDS011;4154;48.810;9.012;2023-05-10T08:41:28;0.80;;;0.80;;
8225;SDS011;4154;48.810;9.012;2023-05-10T08:43:58;0.70;;;0.70;;
8225;SDS011;4154;48.810;9.012;2023-05-10T08:46:28;0.75;;;0.75;;
8225;SDS011;4154;48.810;9.012;2023-05-10T08:49:03;1.00;;;0.88;;
8225;SDS011;4154;48.810;9.012;2023-05-10T08:51:32;2.10;;;0.75;;
8225;SDS011;4154;48.810;9.012;2023-05-10T08:54:05;1.05;;;0.50;;
8225;SDS011;4154;48.810;9.012;2023-05-10T08:56:31;0.93;;;0.80;;
8225;SDS011;4154;48.810;9.012;2023-05-10T08:58:57;1.42;;;0.68;;
8225;SDS011;4154;48.810;9.012;2023-05-10T09:01:23;1.27;;;0.60;;
8225;SDS011;4154;48.810;9.012;2023-05-10T09:03:51;0.88;;;0.75;;
8225;SDS011;4154;48.810;9.012;2023-05-10T09:06:17;0.80;;;0.80;;
8225;SDS011;4154;48.810;9.012;2023-05-10T09:08:43;0.70;;;0.70;;
8225;SDS011;4154;48.810;9.012;2023-05-10T09:11:11;0.60;;;0.60;;
8225;SDS011;4154;48.810;9.012;2023-05-10T09:13:37;0.50;;;0.50;;
8225;SDS011;4154;48.810;9.012;2023-05-10T09:16:04;0.68;;;0.65;;
8225;SDS011;4154;48.810;9.012;2023-05-10T09:18:30;5.72;;;0.90;;
8225;SDS011;4154;48.810;9.012;2023-05-10T09:20:55;2.45;;;0.77;;
8225;SDS011;4154;48.810;9.012;2023-05-10T09:23:21;1.55;;;0.70;;
8225;SDS011;4154;48.810;9.012;2023-05-10T09:25:48;1.05;;;0.63;;
8225;SDS011;4154;48.810;9.012;2023-05-10T09:28:33;1.23;;;0.70;;
8225;SDS011;4154;48.810;9.012;2023-05-10T09:31:14;0.73;;;0.73;;
8225;SDS011;4154;48.810;9.012;2023-05-10T09:33:47;1.95;;;0.70;;
8225;SDS011;4154;48.810;9.012;2023-05-10T09:36:14;0.90;;;0.68;;
8225;SDS011;4154;48.810;9.012;2023-05-10T09:38:50;5.35;;;0.80;;
8225;SDS011;4154;48.810;9.012;2023-05-10T09:41:23;0.60;;;0.60;;
8225;SDS011;4154;48.810;9.012;2023-05-10T09:43:54;0.55;;;0.55;;
8225;SDS011;4154;48.810;9.012;2023-05-10T09:46:21;0.40;;;0.40;;
8225;SDS011;4154;48.810;9.012;2023-05-10T09:48:48;0.90;;;0.60;;
8225;SDS011;4154;48.810;9.012;2023-05-10T09:51:20;2.25;;;0.68;;
8225;SDS011;4154;48.810;9.012;2023-05-10T09:53:47;0.85;;;0.60;;
8225;SDS011;4154;48.810;9.012;2023-05-10T09:56:33;0.77;;;0.50;;
8225;SDS011;4154;48.810;9.012;2023-05-10T09:59:05;0.60;;;0.60;;
8225;SDS011;4154;48.810;9.012;2023-05-10T10:01:34;0.50;;;0.50;;
8225;SDS011;4154;48.810;9.012;2023-05-10T10:04:06;0.60;;;0.60;;
8225;SDS011;4154;48.810;9.012;2023-05-10T10:06:35;0.52;;;0.52;;
8225;SDS011;4154;48.810;9.012;2023-05-10T10:09:05;0.57;;;0.57;;
8225;SDS011;4154;48.810;9.012;2023-05-10T10:11:34;1.17;;;0.60;;
8225;SDS011;4154;48.810;9.012;2023-05-10T10:14:01;0.60;;;0.60;;
8225;SDS011;4154;48.810;9.012;2023-05-10T10:16:28;1.05;;;0.75;;
8225;SDS011;4154;48.810;9.012;2023-05-10T10:18:55;1.70;;;0.52;;
8225;SDS011;4154;48.810;9.012;2023-05-10T10:21:22;1.70;;;0.90;;
8225;SDS011;4154;48.810;9.012;2023-05-10T10:23:48;0.60;;;0.60;;
8225;SDS011;4154;48.810;9.012;2023-05-10T10:26:14;2.38;;;0.77;;
8225;SDS011;4154;48.810;9.012;2023-05-10T10:34:32;1.80;;;0.50;;
8225;SDS011;4154;48.810;9.012;2023-05-10T10:36:59;0.50;;;0.40;;
8225;SDS011;4154;48.810;9.012;2023-05-10T10:39:30;1.90;;;1.00;;
8225;SDS011;4154;48.810;9.012;2023-05-10T10:41:56;0.40;;;0.40;;
8225;SDS011;4154;48.810;9.012;2023-05-10T10:47:05;0.50;;;0.50;;
8225;SDS011;4154;48.810;9.012;2023-05-10T10:50:02;0.60;;;0.60;;
8225;SDS011;4154;48.810;9.012;2023-05-10T10:52:35;0.60;;;0.50;;
8225;SDS011;4154;48.810;9.012;2023-05-10T10:55:19;1.67;;;0.50;;
8225;SDS011;4154;48.810;9.012;2023-05-10T10:57:50;0.50;;;0.50;;
8225;SDS011;4154;48.810;9.012;2023-05-10T11:03:04;1.02;;;0.60;;
8225;SDS011;4154;48.810;9.012;2023-05-10T11:08:07;1.60;;;0.60;;
8225;SDS011;4154;48.810;9.012;2023-05-10T11:16:18;1.92;;;0.82;;
8225;SDS011;4154;48.810;9.012;2023-05-10T11:21:34;1.42;;;0.68;;
8225;SDS011;4154;48.810;9.012;2023-05-10T11:24:16;0.70;;;0.70;;
8225;SDS011;4154;48.810;9.012;2023-05-10T11:26:44;0.80;;;0.80;;
8225;SDS011;4154;48.810;9.012;2023-05-10T11:29:14;0.70;;;0.70;;
8225;SDS011;4154;48.810;9.012;2023-05-10T11:31:44;2.00;;;0.73;;
8225;SDS011;4154;48.810;9.012;2023-05-10T11:34:11;1.52;;;0.77;;
8225;SDS011;4154;48.810;9.012;2023-05-10T11:36:58;1.58;;;0.93;;
8225;SDS011;4154;48.810;9.012;2023-05-10T11:39:28;0.95;;;0.77;;
8225;SDS011;4154;48.810;9.012;2023-05-10T11:41:55;0.77;;;0.70;;
8225;SDS011;4154;48.810;9.012;2023-05-10T11:44:22;0.82;;;0.82;;
8225;SDS011;4154;48.810;9.012;2023-05-10T11:46:48;1.00;;;0.70;;
8225;SDS011;4154;48.810;9.012;2023-05-10T11:49:14;0.80;;;0.80;;
8225;SDS011;4154;48.810;9.012;2023-05-10T11:51:40;1.25;;;0.90;;
8225;SDS011;4154;48.810;9.012;2023-05-10T11:54:09;1.15;;;0.88;;
8225;SDS011;4154;48.810;9.012;2023-05-10T11:56:36;1.30;;;1.15;;
8225;SDS011;4154;48.810;9.012;2023-05-10T11:59:05;0.95;;;0.90;;
8225;SDS011;4154;48.810;9.012;2023-05-10T12:01:32;1.40;;;1.10;;
8225;SDS011;4154;48.810;9.012;2023-05-10T12:03:58;1.10;;;1.10;;
8225;SDS011;4154;48.810;9.012;2023-05-10T12:06:30;1.98;;;1.02;;
8225;SDS011;4154;48.810;9.012;2023-05-10T12:08:58;1.35;;;0.90;;
8225;SDS011;4154;48.810;9.012;2023-05-10T12:11:30;1.38;;;1.13;;
8225;SDS011;4154;48.810;9.012;2023-05-10T12:13:55;1.83;;;1.05;;
8225;SDS011;4154;48.810;9.012;2023-05-10T12:16:30;1.48;;;1.02;;
8225;SDS011;4154;48.810;9.012;2023-05-10T12:18:57;2.60;;;1.10;;
8225;SDS011;4154;48.810;9.012;2023-05-10T12:21:25;0.93;;;0.70;;
8225;SDS011;4154;48.810;9.012;2023-05-10T12:23:53;1.30;;;0.90;;
8225;SDS011;4154;48.810;9.012;2023-05-10T12:26:24;0.95;;;0.80;;
8225;SDS011;4154;48.810;9.012;2023-05-10T12:28:52;1.88;;;1.00;;
8225;SDS011;4154;48.810;9.012;2023-05-10T12:34:23;2.22;;;1.00;;
8225;SDS011;4154;48.810;9.012;2023-05-10T12:36:56;2.30;;;1.27;;
8225;SDS011;4154;48.810;9.012;2023-05-10T12:39:22;1.52;;;0.90;;
8225;SDS011;4154;48.810;9.012;2023-05-10T12:41:48;2.22;;;0.98;;
8225;SDS011;4154;48.810;9.012;2023-05-10T12:44:14;0.95;;;0.93;;
8225;SDS011;4154;48.810;9.012;2023-05-10T12:46:40;2.22;;;1.10;;
8225;SDS011;4154;48.810;9.012;2023-05-10T12:49:06;1.35;;;0.90;;
8225;SDS011;4154;48.810;9.012;2023-05-10T12:51:32;1.55;;;0.98;;
8225;SDS011;4154;48.810;9.012;2023-05-10T12:53:58;1.40;;;1.02;;
8225;SDS011;4154;48.810;9.012;2023-05-10T12:56:24;3.08;;;1.08;;
8225;SDS011;4154;48.810;9.012;2023-05-10T12:58:49;1.40;;;0.85;;
8225;SDS011;4154;48.810;9.012;2023-05-10T13:01:15;1.08;;;0.80;;
8225;SDS011;4154;48.810;9.012;2023-05-10T13:03:42;2.30;;;0.90;;
8225;SDS011;4154;48.810;9.012;2023-05-10T13:06:08;1.45;;;0.80;;
8225;SDS011;4154;48.810;9.012;2023-05-10T13:08:33;2.35;;;1.00;;
8225;SDS011;4154;48.810;9.012;2023-05-10T13:11:00;1.33;;;1.10;;
8225;SDS011;4154;48.810;9.012;2023-05-10T13:13:27;1.13;;;0.77;;
8225;SDS011;4154;48.810;9.012;2023-05-10T13:15:53;2.22;;;1.10;;
8225;SDS011;4154;48.810;9.012;2023-05-10T13:18:19;1.85;;;0.93;;
8225;SDS011;4154;48.810;9.012;2023-05-10T13:20:45;1.90;;;1.13;;
8225;SDS011;4154;48.810;9.012;2023-05-10T13:23:11;1.17;;;0.95;;
8225;SDS011;4154;48.810;9.012;2023-05-10T13:25:37;2.70;;;0.95;;
8225;SDS011;4154;48.810;9.012;2023-05-10T13:28:04;1.10;;;1.02;;
8225;SDS011;4154;48.810;9.012;2023-05-10T13:30:29;2.10;;;0.90;;
8225;SDS011;4154;48.810;9.012;2023-05-10T13:32:55;2.20;;;0.90;;
8225;SDS011;4154;48.810;9.012;2023-05-10T13:35:21;0.82;;;0.80;;
8225;SDS011;4154;48.810;9.012;2023-05-10T13:37:47;1.38;;;0.80;;
8225;SDS011;4154;48.810;9.012;2023-05-10T13:40:13;1.02;;;0.90;;
8225;SDS011;4154;48.810;9.012;2023-05-10T13:42:40;1.58;;;1.00;;
8225;SDS011;4154;48.810;9.012;2023-05-10T13:45:07;3.05;;;0.80;;
8225;SDS011;4154;48.810;9.012;2023-05-10T13:47:33;0.93;;;0.90;;
8225;SDS011;4154;48.810;9.012;2023-05-10T13:49:59;1.45;;;0.90;;
8225;SDS011;4154;48.810;9.012;2023-05-10T13:52:26;1.55;;;0.90;;
8225;SDS011;4154;48.810;9.012;2023-05-10T13:54:52;0.70;;;0.70;;
8225;SDS011;4154;48.810;9.012;2023-05-10T13:57:20;1.90;;;0.80;;
8225;SDS011;4154;48.810;9.012;2023-05-10T13:59:46;0.95;;;0.85;;
8225;SDS011;4154;48.810;9.012;2023-05-10T14:02:12;0.93;;;0.90;;
8225;SDS011;4154;48.810;9.012;2023-05-10T14:04:38;1.95;;;0.95;;
8225;SDS011;4154;48.810;9.012;2023-05-10T14:07:04;2.03;;;0.90;;
8225;SDS011;4154;48.810;9.012;2023-05-10T14:09:30;1.60;;;0.88;;
8225;SDS011;4154;48.810;9.012;2023-05-10T14:11:56;3.20;;;0.95;;
8225;SDS011;4154;48.810;9.012;2023-05-10T14:14:22;1.48;;;0.73;;
8225;SDS011;4154;48.810;9.012;2023-05-10T14:16:48;0.98;;;0.90;;
8225;SDS011;4154;48.810;9.012;2023-05-10T14:19:14;2.75;;;0.93;;
8225;SDS011;4154;48.810;9.012;2023-05-10T14:21:40;3.08;;;1.48;;
8225;SDS011;4154;48.810;9.012;2023-05-10T14:24:05;2.78;;;1.20;;
8225;SDS011;4154;48.810;9.012;2023-05-10T14:26:32;3.63;;;1.00;;
8225;SDS011;4154;48.810;9.012;2023-05-10T14:28:59;1.63;;;1.08;;
8225;SDS011;4154;48.810;9.012;2023-05-10T14:31:25;2.97;;;1.00;;
8225;SDS011;4154;48.810;9.012;2023-05-10T14:33:51;1.35;;;1.10;;
8225;SDS011;4154;48.810;9.012;2023-05-10T14:36:17;1.27;;;1.10;;
8225;SDS011;4154;48.810;9.012;2023-05-10T14:38:43;0.88;;;0.77;;
8225;SDS011;4154;48.810;9.012;2023-05-10T14:41:09;1.15;;;1.05;;
8225;SDS011;4154;48.810;9.012;2023-05-10T14:43:38;2.58;;;0.93;;
8225;SDS011;4154;48.810;9.012;2023-05-10T14:46:04;0.98;;;0.85;;
8225;SDS011;4154;48.810;9.012;2023-05-10T14:48:30;1.00;;;0.80;;
8225;SDS011;4154;48.810;9.012;2023-05-10T14:50:56;1.33;;;0.90;;
8225;SDS011;4154;48.810;9.012;2023-05-10T14:53:22;1.10;;;1.00;;
8225;SDS011;4154;48.810;9.012;2023-05-10T14:55:47;0.80;;;0.80;;
8225;SDS011;4154;48.810;9.012;2023-05-10T14:58:13;1.00;;;0.88;;
8225;SDS011;4154;48.810;9.012;2023-05-10T15:00:40;1.63;;;0.82;;
8225;SDS011;4154;48.810;9.012;2023-05-10T15:03:06;0.60;;;0.60;;
8225;SDS011;4154;48.810;9.012;2023-05-10T15:05:31;0.60;;;0.60;;
8225;SDS011;4154;48.810;9.012;2023-05-10T15:07:57;1.27;;;0.90;;
8225;SDS011;4154;48.810;9.012;2023-05-10T15:10:23;3.13;;;0.63;;
8225;SDS011;4154;48.810;9.012;2023-05-10T15:12:49;0.70;;;0.68;;
8225;SDS011;4154;48.810;9.012;2023-05-10T15:15:15;1.63;;;0.90;;
8225;SDS011;4154;48.810;9.012;2023-05-10T15:17:41;1.23;;;0.77;;
8225;SDS011;4154;48.810;9.012;2023-05-10T15:20:07;0.50;;;0.50;;
8225;SDS011;4154;48.810;9.012;2023-05-10T15:22:33;0.60;;;0.45;;
8225;SDS011;4154;48.810;9.012;2023-05-10T15:24:59;0.60;;;0.60;;
8225;SDS011;4154;48.810;9.012;2023-05-10T15:27:25;1.52;;;0.70;;
8225;SDS011;4154;48.810;9.012;2023-05-10T15:29:52;0.70;;;0.70;;
8225;SDS011;4154;48.810;9.012;2023-05-10T15:32:18;0.60;;;0.60;;
8225;SDS011;4154;48.810;9.012;2023-05-10T15:34:44;0.73;;;0.73;;
8225;SDS011;4154;48.810;9.012;2023-05-10T15:37:09;0.95;;;0.60;;
8225;SDS011;4154;48.810;9.012;2023-05-10T15:39:36;0.98;;;0.40;;
8225;SDS011;4154;48.810;9.012;2023-05-10T15:42:02;0.50;;;0.50;;
8225;SDS011;4154;48.810;9.012;2023-05-10T15:44:28;1.23;;;0.77;;
8225;SDS011;4154;48.810;9.012;2023-05-10T15:46:54;3.67;;;0.93;;
8225;SDS011;4154;48.810;9.012;2023-05-10T15:49:20;2.22;;;0.88;;
8225;SDS011;4154;48.810;9.012;2023-05-10T15:51:46;0.65;;;0.65;;
8225;SDS011;4154;48.810;9.012;2023-05-10T15:54:13;0.68;;;0.68;;
8225;SDS011;4154;48.810;9.012;2023-05-10T15:56:39;1.05;;;0.70;;
8225;SDS011;4154;48.810;9.012;2023-05-10T15:59:05;1.17;;;0.70;;
8225;SDS011;4154;48.810;9.012;2023-05-10T16:01:32;0.95;;;0.70;;
8225;SDS011;4154;48.810;9.012;2023-05-10T16:03:59;0.63;;;0.50;;